National Weather Service Raw Text Product

Displaying AFOS PIL: TAFOTM Received: 2018-10-12 05:20 UTC


536 
FTUS43 KDMX 120520
TAFOTM
TAF
KOTM 120520Z 1206/1306 VRB02KT P6SM SCT250
     FM121200 VRB03KT P6SM VCSH OVC060
     FM121500 25004KT 5SM -RA OVC010
     FM121900 26006KT P6SM OVC030
     FM130200 24005KT P6SM BKN050=